NY29 weather

Schuyler Airport
Watkins Glen, New York, United States

Public forecast

Using degrees Fahrenheit for public forecast. Weather courtesy of forecast.io.

METAR (pilot weather report)

Closest report is Penn Yan Airport, 12.8 nm (23.6 km) NNW. Retrieved 2019/09/23 04:53 UTC (1 hour ago):

KPEO 230453Z AUTO 19006KT 10SM CLR 22/19 A2992 RMK AO2 SLP124 T02220189 403170172

TAF (pilot weather forecast)

Forecast is more than 12 hours old.

Closest forecast is Elmira Corning Regional Airport, 17.6 nm (32.5 km) S. Retrieved 2019/09/22 00:22 UTC (1 day ago):

TAF KELM 222320Z 2300/2324 21006KT P6SM SCT100 FM230800 22006KT P6SM BKN100 WS020/25035KT FM231200 21010KT P6SM BKN050 FM231500 23010G20KT P6SM -SHRA OVC035